createdAt,value
2022-10-19T00:02:10.600Z,9.26
2022-10-19T00:04:37.191Z,9.23
2022-10-19T00:07:09.908Z,9.22
2022-10-19T00:09:39.135Z,9.22
2022-10-19T00:12:06.663Z,9.23
2022-10-19T00:14:34.106Z,9.24
2022-10-19T00:17:01.831Z,9.26
2022-10-19T00:19:28.654Z,9.34
2022-10-19T00:21:55.396Z,9.38
2022-10-19T00:24:24.023Z,9.41
2022-10-19T00:26:53.725Z,9.40
2022-10-19T00:29:20.681Z,8.68
2022-10-19T00:31:50.057Z,9.42
2022-10-19T00:34:20.795Z,9.42
2022-10-19T00:36:47.496Z,9.33
2022-10-19T00:39:14.982Z,9.37
2022-10-19T00:41:41.560Z,9.46
2022-10-19T00:44:32.440Z,9.50
2022-10-19T00:47:03.478Z,9.61
2022-10-19T00:49:31.916Z,9.71
2022-10-19T00:52:03.150Z,9.59
2022-10-19T00:54:30.520Z,9.51
2022-10-19T00:56:57.854Z,9.42
2022-10-19T00:59:24.415Z,9.45
2022-10-19T01:01:50.949Z,9.42
2022-10-19T01:04:17.764Z,9.57
2022-10-19T01:06:44.601Z,9.67
2022-10-19T01:09:11.221Z,9.77
2022-10-19T01:11:49.834Z,9.84
2022-10-19T01:14:34.690Z,9.84
2022-10-19T01:17:48.862Z,9.93
2022-10-19T01:20:37.036Z,9.89
2022-10-19T01:23:31.048Z,10.04
2022-10-19T01:26:19.207Z,10.17
2022-10-19T01:28:57.800Z,10.26
2022-10-19T01:31:31.739Z,10.24
2022-10-19T01:34:20.189Z,10.36
2022-10-19T01:37:14.554Z,10.41
2022-10-19T01:39:45.341Z,10.45
2022-10-19T01:42:29.043Z,10.57
2022-10-19T01:45:00.999Z,10.53
2022-10-19T01:47:31.125Z,10.61
2022-10-19T01:50:03.351Z,10.54
2022-10-19T01:52:29.852Z,10.70
2022-10-19T01:54:57.571Z,10.73
2022-10-19T01:57:26.949Z,10.77
2022-10-19T01:59:53.539Z,10.75
2022-10-19T02:02:20.111Z,10.81
2022-10-19T02:04:47.328Z,10.76
2022-10-19T02:07:13.834Z,10.84
2022-10-19T02:09:40.322Z,10.82
2022-10-19T02:12:09.362Z,10.77
2022-10-19T02:14:56.605Z,10.78
2022-10-19T02:17:28.677Z,10.82
2022-10-19T02:19:55.220Z,10.77
2022-10-19T02:22:22.264Z,10.74
2022-10-19T02:24:48.780Z,10.64
2022-10-19T02:27:15.367Z,10.60
2022-10-19T02:29:41.881Z,10.48
2022-10-19T02:32:09.986Z,10.48
2022-10-19T02:34:36.641Z,10.53
2022-10-19T02:37:03.134Z,10.49
2022-10-19T02:39:29.673Z,10.55
2022-10-19T02:42:14.318Z,10.54
2022-10-19T02:44:56.288Z,10.49
2022-10-19T02:47:37.080Z,10.52
2022-10-19T02:50:07.340Z,10.64
2022-10-19T02:52:33.875Z,10.63
2022-10-19T02:55:00.424Z,10.68
2022-10-19T02:57:27.253Z,10.68
2022-10-19T02:59:53.871Z,10.70
2022-10-19T03:02:20.555Z,10.67
2022-10-19T03:07:15.651Z,10.71
2022-10-19T03:09:42.723Z,10.71
2022-10-19T03:12:09.583Z,10.70
2022-10-19T03:14:36.046Z,10.76
2022-10-19T03:17:02.896Z,10.71
2022-10-19T03:19:29.483Z,10.68
2022-10-19T03:21:56.047Z,10.72
2022-10-19T03:24:22.800Z,10.70
2022-10-19T03:26:49.612Z,10.62
2022-10-19T03:29:16.181Z,10.71
2022-10-19T03:31:42.744Z,10.72
2022-10-19T03:34:09.279Z,10.68
2022-10-19T03:36:37.330Z,10.63
2022-10-19T03:39:05.932Z,10.62
2022-10-19T03:41:33.921Z,10.52
2022-10-19T03:46:27.097Z,10.56
2022-10-19T03:48:54.060Z,10.58
2022-10-19T03:51:22.363Z,10.56
2022-10-19T03:53:52.356Z,10.52
2022-10-19T03:56:20.477Z,10.53
2022-10-19T03:58:47.949Z,10.47
2022-10-19T04:01:22.620Z,10.50
2022-10-19T04:03:53.703Z,10.42
2022-10-19T04:06:22.070Z,10.44
2022-10-19T04:08:48.891Z,10.45
2022-10-19T04:11:23.080Z,10.42
2022-10-19T04:13:50.515Z,10.46
2022-10-19T04:16:17.192Z,10.44
2022-10-19T04:18:43.789Z,10.41
2022-10-19T04:21:48.106Z,10.41
2022-10-19T04:24:15.851Z,10.39
2022-10-19T04:26:50.089Z,10.37
2022-10-19T04:29:17.321Z,10.34
2022-10-19T04:31:43.854Z,10.37
2022-10-19T04:34:10.439Z,10.38
2022-10-19T04:36:37.360Z,10.41
2022-10-19T04:39:04.831Z,10.43
2022-10-19T04:41:31.428Z,10.39
2022-10-19T04:43:58.806Z,10.39
2022-10-19T04:46:25.740Z,10.25
2022-10-19T04:48:52.707Z,10.29
2022-10-19T04:51:19.394Z,10.29
2022-10-19T04:53:46.313Z,10.25
2022-10-19T04:56:23.445Z,10.21
2022-10-19T04:58:50.062Z,10.24
2022-10-19T05:01:20.779Z,10.18
2022-10-19T05:03:47.720Z,10.17
2022-10-19T05:06:14.836Z,10.12
2022-10-19T05:08:41.498Z,10.05
2022-10-19T05:11:11.042Z,9.98
2022-10-19T05:13:37.692Z,9.96
2022-10-19T05:16:05.030Z,9.87
2022-10-19T05:18:31.747Z,9.88
2022-10-19T05:21:05.479Z,9.88
2022-10-19T05:26:14.284Z,9.92
2022-10-19T05:28:41.017Z,9.91
2022-10-19T05:31:12.336Z,9.90
2022-10-19T05:33:38.932Z,9.91
2022-10-19T05:36:18.701Z,9.91
2022-10-19T05:38:45.949Z,9.87
2022-10-19T05:41:12.749Z,9.81
2022-10-19T05:43:40.251Z,9.80
2022-10-19T05:46:08.054Z,9.76
2022-10-19T05:48:34.905Z,9.80
2022-10-19T05:51:01.929Z,9.74
2022-10-19T05:53:29.978Z,9.82
2022-10-19T05:55:56.586Z,9.80
2022-10-19T05:58:23.186Z,9.72
2022-10-19T06:00:57.953Z,9.72
2022-10-19T06:03:24.651Z,9.68
2022-10-19T06:05:51.705Z,9.71
2022-10-19T06:08:18.352Z,9.74
2022-10-19T06:10:45.109Z,9.82
2022-10-19T06:13:11.670Z,9.88
2022-10-19T06:15:38.279Z,9.83
2022-10-19T06:18:04.880Z,9.80
2022-10-19T06:20:31.367Z,9.78
2022-10-19T06:22:57.904Z,9.80
2022-10-19T06:25:24.491Z,9.74
2022-10-19T06:27:51.131Z,9.75
2022-10-19T06:30:17.902Z,9.81
2022-10-19T06:32:44.395Z,9.84
2022-10-19T06:35:10.898Z,9.87
2022-10-19T06:37:37.596Z,9.84
2022-10-19T06:40:07.073Z,9.77
2022-10-19T06:42:33.862Z,9.80
2022-10-19T06:45:00.857Z,9.80
2022-10-19T06:47:27.410Z,9.90
2022-10-19T06:49:54.011Z,9.91
2022-10-19T06:52:20.531Z,9.88
2022-10-19T06:54:47.088Z,9.82
2022-10-19T06:57:13.670Z,9.82
2022-10-19T06:59:40.162Z,9.81
2022-10-19T07:02:06.702Z,9.86
2022-10-19T07:04:33.241Z,9.95
2022-10-19T07:06:59.718Z,9.76
2022-10-19T07:09:26.181Z,9.85
2022-10-19T07:11:52.662Z,9.94
2022-10-19T07:14:19.847Z,9.97
2022-10-19T07:16:46.388Z,10.04
2022-10-19T07:19:12.911Z,10.07
2022-10-19T07:21:39.607Z,10.06
2022-10-19T07:24:06.410Z,10.06
2022-10-19T07:26:33.092Z,10.07
2022-10-19T07:29:00.783Z,10.07
2022-10-19T07:31:28.177Z,10.18
2022-10-19T07:34:07.043Z,10.21
2022-10-19T07:36:48.159Z,10.16
2022-10-19T07:39:27.032Z,10.10
2022-10-19T07:41:53.861Z,10.12
2022-10-19T07:44:21.986Z,10.15
2022-10-19T07:46:48.701Z,10.21
2022-10-19T07:49:15.615Z,10.41
2022-10-19T07:51:42.632Z,10.43
2022-10-19T07:54:09.387Z,10.40
2022-10-19T07:56:36.282Z,10.46
2022-10-19T07:59:03.602Z,10.51
2022-10-19T08:01:32.254Z,10.54
2022-10-19T08:04:55.563Z,10.59
2022-10-19T08:06:45.908Z,10.52
2022-10-19T08:09:27.706Z,10.50
2022-10-19T08:11:59.445Z,10.59
2022-10-19T08:14:26.095Z,10.50
2022-10-19T08:16:52.804Z,10.70
2022-10-19T08:19:19.445Z,10.68
2022-10-19T08:21:46.690Z,10.73
2022-10-19T08:24:14.780Z,10.70
2022-10-19T08:26:41.658Z,10.83
2022-10-19T08:29:14.454Z,10.86
2022-10-19T08:31:41.593Z,11.00
2022-10-19T08:34:08.563Z,11.14
2022-10-19T08:36:35.347Z,11.18
2022-10-19T08:39:03.733Z,11.44
2022-10-19T08:41:40.857Z,11.77
2022-10-19T08:44:45.923Z,12.15
2022-10-19T08:47:23.560Z,12.17
2022-10-19T08:49:51.270Z,11.97
2022-10-19T08:52:34.650Z,11.85
2022-10-19T08:55:10.264Z,11.80
2022-10-19T08:57:40.656Z,11.84
2022-10-19T09:00:28.624Z,11.86
2022-10-19T09:03:05.510Z,11.85
2022-10-19T09:05:45.594Z,11.86
2022-10-19T09:08:16.812Z,11.84
2022-10-19T09:10:45.665Z,11.86
2022-10-19T09:13:41.368Z,11.84
2022-10-19T09:16:19.221Z,11.88
2022-10-19T09:18:46.050Z,11.92
2022-10-19T09:21:26.037Z,12.12
2022-10-19T09:24:29.801Z,12.35
2022-10-19T09:26:58.696Z,12.46
2022-10-19T09:29:32.833Z,12.71
2022-10-19T09:32:01.220Z,12.65
2022-10-19T09:34:36.600Z,12.98
2022-10-19T09:37:03.342Z,13.53
2022-10-19T09:39:30.351Z,14.74
2022-10-19T09:41:59.245Z,15.28
2022-10-19T09:44:26.402Z,15.78
2022-10-19T09:46:52.965Z,15.99
2022-10-19T09:49:20.149Z,15.70
2022-10-19T09:51:51.515Z,15.53
2022-10-19T09:54:26.116Z,16.79
2022-10-19T09:56:54.101Z,17.77
2022-10-19T09:59:24.813Z,18.93
2022-10-19T10:02:19.588Z,19.36
2022-10-19T10:04:57.064Z,19.22
2022-10-19T10:07:25.919Z,19.10
2022-10-19T10:09:52.673Z,18.61
2022-10-19T10:12:19.355Z,19.34
2022-10-19T10:14:46.054Z,20.26
2022-10-19T10:17:17.954Z,20.91
2022-10-19T10:20:16.987Z,21.42
2022-10-19T10:22:44.850Z,21.52
2022-10-19T10:25:13.786Z,20.70
2022-10-19T10:27:40.574Z,19.55
2022-10-19T10:30:15.872Z,19.30
2022-10-19T10:32:49.678Z,19.03
2022-10-19T10:35:18.328Z,19.30
2022-10-19T10:37:45.923Z,19.32
2022-10-19T10:40:27.991Z,18.63
2022-10-19T10:42:56.509Z,18.41
2022-10-19T10:45:24.410Z,18.15
2022-10-19T10:47:51.311Z,18.49
2022-10-19T10:50:25.554Z,18.27
2022-10-19T10:53:01.935Z,17.71
2022-10-19T10:55:29.435Z,17.50
2022-10-19T10:58:24.259Z,17.81
2022-10-19T11:00:53.472Z,17.62
2022-10-19T11:03:26.903Z,17.12
2022-10-19T11:05:56.100Z,16.93
2022-10-19T11:08:43.875Z,16.55
2022-10-19T11:11:21.649Z,16.42
2022-10-19T11:14:05.441Z,16.68
2022-10-19T11:16:34.608Z,17.04
2022-10-19T11:19:27.568Z,17.25
2022-10-19T11:21:57.221Z,17.45
2022-10-19T11:24:52.334Z,17.04
2022-10-19T11:27:42.425Z,16.64
2022-10-19T11:30:17.824Z,16.51
2022-10-19T11:32:46.043Z,16.57
2022-10-19T11:35:46.140Z,16.79
2022-10-19T11:38:29.811Z,16.92
2022-10-19T11:41:18.300Z,16.98
2022-10-19T11:43:57.626Z,16.78
2022-10-19T11:46:38.017Z,16.75
2022-10-19T11:49:35.317Z,16.78
2022-10-19T11:52:07.177Z,16.60
2022-10-19T11:54:48.841Z,16.82
2022-10-19T11:57:26.430Z,16.52
2022-10-19T12:00:03.570Z,16.25
2022-10-19T12:03:28.140Z,16.21
2022-10-19T12:06:08.955Z,16.53
2022-10-19T12:08:56.079Z,16.56
2022-10-19T12:11:59.752Z,16.25
2022-10-19T12:14:28.012Z,15.89
2022-10-19T12:16:56.541Z,15.75
2022-10-19T12:19:29.209Z,15.73
2022-10-19T12:21:59.166Z,15.70
2022-10-19T12:24:25.801Z,15.36
2022-10-19T12:26:53.162Z,15.15
2022-10-19T12:29:24.888Z,15.13
2022-10-19T12:31:52.490Z,15.57
2022-10-19T12:34:56.042Z,15.83
2022-10-19T12:37:33.853Z,15.92
2022-10-19T12:40:28.010Z,15.86
2022-10-19T12:43:00.948Z,15.85
2022-10-19T12:45:34.953Z,14.93
2022-10-19T12:48:10.489Z,15.63
2022-10-19T12:50:49.132Z,15.61
2022-10-19T12:53:31.053Z,15.61
2022-10-19T12:56:05.370Z,15.47
2022-10-19T12:58:36.389Z,15.55
2022-10-19T13:01:04.514Z,15.46
2022-10-19T13:03:36.083Z,15.47
2022-10-19T13:06:11.345Z,15.55
2022-10-19T13:08:53.095Z,15.56
2022-10-19T13:11:19.669Z,15.64
2022-10-19T13:14:02.863Z,15.72
2022-10-19T13:16:29.293Z,15.85
2022-10-19T13:19:01.816Z,16.04
2022-10-19T13:21:53.807Z,16.16
2022-10-19T13:24:26.533Z,16.35
2022-10-19T13:27:02.047Z,16.49
2022-10-19T13:29:37.545Z,16.60
2022-10-19T13:32:42.158Z,16.65
2022-10-19T13:35:26.899Z,16.20
2022-10-19T13:38:15.026Z,15.99
2022-10-19T13:41:13.798Z,15.60
2022-10-19T13:44:02.183Z,15.46
2022-10-19T13:46:28.653Z,15.27
2022-10-19T13:48:55.186Z,15.07
2022-10-19T13:51:30.836Z,14.89
2022-10-19T13:54:09.581Z,14.83
2022-10-19T13:56:52.856Z,14.85
2022-10-19T13:59:45.585Z,14.95
2022-10-19T14:02:24.193Z,15.00
2022-10-19T14:05:14.884Z,15.15
2022-10-19T14:07:52.812Z,15.29
2022-10-19T14:10:21.003Z,15.18
2022-10-19T14:12:47.728Z,15.06
2022-10-19T14:15:22.086Z,15.02
2022-10-19T14:17:48.668Z,14.98
2022-10-19T14:20:55.317Z,15.04
2022-10-19T14:23:32.217Z,15.11
2022-10-19T14:26:25.575Z,14.97
2022-10-19T14:28:53.177Z,14.91
2022-10-19T14:31:21.834Z,14.83
2022-10-19T14:33:51.085Z,14.67
2022-10-19T14:36:21.237Z,14.50
2022-10-19T14:38:51.117Z,14.59
2022-10-19T14:41:37.962Z,14.46
2022-10-19T14:44:33.122Z,14.35
2022-10-19T14:47:01.169Z,14.25
2022-10-19T14:49:27.869Z,14.29
2022-10-19T14:51:56.104Z,14.33
2022-10-19T14:54:31.877Z,14.48
2022-10-19T14:57:22.597Z,14.43
2022-10-19T14:59:54.887Z,14.30
2022-10-19T15:02:41.555Z,14.19
2022-10-19T15:05:19.364Z,14.10
2022-10-19T15:07:45.998Z,13.93
2022-10-19T15:10:41.963Z,14.00
2022-10-19T15:13:41.258Z,13.93
2022-10-19T15:16:27.163Z,13.89
2022-10-19T15:18:54.095Z,13.75
2022-10-19T15:21:21.211Z,13.75
2022-10-19T15:23:49.352Z,13.70
2022-10-19T15:26:28.579Z,13.65
2022-10-19T15:29:06.712Z,13.64
2022-10-19T15:31:33.431Z,13.54
2022-10-19T15:34:01.324Z,13.52
2022-10-19T15:36:29.309Z,13.48
2022-10-19T15:39:17.603Z,13.40
2022-10-19T15:41:50.027Z,13.33
2022-10-19T15:44:53.412Z,13.26
2022-10-19T15:47:21.953Z,13.11
2022-10-19T15:49:56.179Z,13.02
2022-10-19T15:52:24.143Z,12.82
2022-10-19T15:54:52.043Z,12.69
2022-10-19T15:57:22.292Z,12.60
2022-10-19T15:59:49.044Z,12.40
2022-10-19T16:02:15.857Z,12.26
2022-10-19T16:04:42.633Z,12.04
2022-10-19T16:07:13.260Z,11.88
2022-10-19T16:09:39.957Z,11.82
2022-10-19T16:12:06.775Z,11.72
2022-10-19T16:14:36.436Z,11.61
2022-10-19T16:17:04.227Z,11.44
2022-10-19T16:19:30.953Z,11.26
2022-10-19T16:21:57.652Z,11.03
2022-10-19T16:24:24.362Z,10.91
2022-10-19T16:26:51.314Z,10.73
2022-10-19T16:29:17.969Z,10.63
2022-10-19T16:31:44.938Z,10.46
2022-10-19T16:34:12.068Z,10.30
2022-10-19T16:36:38.721Z,10.19
2022-10-19T16:39:05.407Z,10.07
2022-10-19T16:41:32.182Z,9.94
2022-10-19T16:43:59.026Z,9.80
2022-10-19T16:46:26.073Z,9.71
2022-10-19T16:48:52.881Z,9.54
2022-10-19T16:51:26.347Z,9.43
2022-10-19T16:53:55.281Z,9.39
2022-10-19T16:56:22.088Z,9.26
2022-10-19T16:58:48.666Z,9.10
2022-10-19T17:01:17.667Z,9.04
2022-10-19T17:03:45.106Z,9.00
2022-10-19T17:06:11.821Z,8.93
2022-10-19T17:09:14.339Z,8.79
2022-10-19T17:11:30.095Z,8.80
2022-10-19T17:13:58.136Z,8.80
2022-10-19T17:16:27.880Z,8.67
2022-10-19T17:18:55.548Z,8.50
2022-10-19T17:21:23.889Z,8.48
2022-10-19T17:23:58.702Z,8.37
2022-10-19T17:26:29.765Z,8.24
2022-10-19T17:28:56.502Z,8.11
2022-10-19T17:31:23.401Z,8.14
2022-10-19T17:33:50.058Z,8.25
2022-10-19T17:36:27.431Z,8.08
2022-10-19T17:38:57.097Z,7.96
2022-10-19T17:41:25.442Z,7.88
2022-10-19T17:43:52.601Z,7.81
2022-10-19T17:46:22.901Z,7.75
2022-10-19T17:48:49.929Z,7.71
2022-10-19T17:51:21.775Z,7.70
2022-10-19T17:53:48.787Z,7.61
2022-10-19T17:56:20.401Z,7.53
2022-10-19T17:58:47.532Z,7.42
2022-10-19T18:01:23.858Z,7.38
2022-10-19T18:03:50.758Z,7.22
2022-10-19T18:06:19.405Z,7.10
2022-10-19T18:08:48.005Z,7.01
2022-10-19T18:11:17.294Z,7.07
2022-10-19T18:13:43.911Z,7.09
2022-10-19T18:16:14.601Z,6.94
2022-10-19T18:18:42.372Z,6.87
2022-10-19T18:21:10.729Z,6.82
2022-10-19T18:23:37.645Z,6.66
2022-10-19T18:26:05.831Z,6.66
2022-10-19T18:28:32.706Z,6.67
2022-10-19T18:31:10.546Z,6.66
2022-10-19T18:33:37.371Z,6.64
2022-10-19T18:36:04.696Z,6.61
2022-10-19T18:38:31.781Z,6.56
2022-10-19T18:41:04.738Z,6.56
2022-10-19T18:43:31.341Z,6.49
2022-10-19T18:45:59.086Z,6.42
2022-10-19T18:48:26.837Z,6.35
2022-10-19T18:50:53.437Z,6.31
2022-10-19T18:53:20.319Z,6.28
2022-10-19T18:55:57.770Z,6.26
2022-10-19T18:58:24.500Z,6.32
2022-10-19T19:00:52.165Z,6.24
2022-10-19T19:03:19.660Z,6.27
2022-10-19T19:05:46.234Z,6.18
2022-10-19T19:08:13.357Z,6.20
2022-10-19T19:10:40.132Z,6.30
2022-10-19T19:13:06.843Z,6.30
2022-10-19T19:15:33.504Z,6.21
2022-10-19T19:18:00.202Z,6.05
2022-10-19T19:20:26.925Z,5.97
2022-10-19T19:22:53.620Z,5.93
2022-10-19T19:25:20.384Z,5.86
2022-10-19T19:27:46.937Z,5.97
2022-10-19T19:30:14.324Z,6.12
2022-10-19T19:32:41.158Z,6.02
2022-10-19T19:35:07.953Z,5.87
2022-10-19T19:37:36.253Z,5.89
2022-10-19T19:40:03.484Z,5.86
2022-10-19T19:42:30.070Z,5.91
2022-10-19T19:44:56.706Z,5.87
2022-10-19T19:47:23.415Z,5.72
2022-10-19T19:49:50.142Z,5.77
2022-10-19T19:52:17.074Z,5.64
2022-10-19T19:54:43.871Z,5.60
2022-10-19T19:57:10.611Z,5.61
2022-10-19T19:59:37.487Z,5.72
2022-10-19T20:02:04.172Z,5.70
2022-10-19T20:04:31.542Z,5.64
2022-10-19T20:06:58.237Z,5.49
2022-10-19T20:09:26.505Z,5.40
2022-10-19T20:11:53.312Z,5.38
2022-10-19T20:14:21.982Z,5.35
2022-10-19T20:16:48.645Z,5.30
2022-10-19T20:19:15.412Z,5.30
2022-10-19T20:21:52.920Z,5.32
2022-10-19T20:24:20.274Z,5.31
2022-10-19T20:26:47.574Z,5.14
2022-10-19T20:29:14.164Z,5.16
2022-10-19T20:31:41.511Z,5.08
2022-10-19T20:34:09.601Z,5.06
2022-10-19T20:36:36.294Z,4.97
2022-10-19T20:39:03.250Z,4.94
2022-10-19T20:41:29.923Z,5.04
2022-10-19T20:43:56.934Z,5.10
2022-10-19T20:46:25.967Z,5.01
2022-10-19T20:48:52.844Z,4.95
2022-10-19T20:51:26.124Z,4.86
2022-10-19T20:53:56.455Z,4.85
2022-10-19T20:56:25.349Z,4.85
2022-10-19T20:58:59.876Z,4.73
2022-10-19T21:01:26.978Z,4.79
2022-10-19T21:03:55.052Z,4.74
2022-10-19T21:06:23.232Z,4.73
2022-10-19T21:08:50.115Z,4.74
2022-10-19T21:11:18.706Z,4.74
2022-10-19T21:13:45.728Z,4.68
2022-10-19T21:16:16.989Z,4.69
2022-10-19T21:18:44.071Z,4.64
2022-10-19T21:21:18.725Z,4.50
2022-10-19T21:23:46.274Z,4.45
2022-10-19T21:26:13.007Z,4.41
2022-10-19T21:28:40.069Z,4.36
2022-10-19T21:31:07.988Z,4.29
2022-10-19T21:33:34.959Z,4.32
2022-10-19T21:36:04.881Z,4.33
2022-10-19T21:38:31.633Z,4.39
2022-10-19T21:41:04.527Z,4.40
2022-10-19T21:43:31.405Z,4.37
2022-10-19T21:45:58.135Z,4.39
2022-10-19T21:48:24.789Z,4.25
2022-10-19T21:50:51.475Z,4.19
2022-10-19T21:53:21.571Z,4.18
2022-10-19T21:55:48.317Z,4.13
2022-10-19T21:58:15.052Z,4.14
2022-10-19T22:00:41.819Z,4.15
2022-10-19T22:03:08.604Z,4.15
2022-10-19T22:05:35.215Z,4.20
2022-10-19T22:08:01.916Z,4.21
2022-10-19T22:10:28.650Z,4.28
2022-10-19T22:12:55.690Z,4.23
2022-10-19T22:15:22.227Z,4.22
2022-10-19T22:17:48.792Z,4.10
2022-10-19T22:20:15.509Z,4.00
2022-10-19T22:22:42.140Z,3.96
2022-10-19T22:25:08.953Z,3.92
2022-10-19T22:27:35.600Z,3.98
2022-10-19T22:30:02.209Z,4.06
2022-10-19T22:32:28.991Z,4.04
2022-10-19T22:34:55.729Z,4.02
2022-10-19T22:37:22.439Z,4.05
2022-10-19T22:39:49.178Z,4.12
2022-10-19T22:42:15.808Z,4.11
2022-10-19T22:44:42.483Z,4.16
2022-10-19T22:47:09.034Z,4.04
2022-10-19T22:49:35.724Z,3.97
2022-10-19T22:52:02.401Z,3.88
2022-10-19T22:54:29.257Z,3.91
2022-10-19T22:56:55.898Z,3.88
2022-10-19T22:59:22.604Z,3.94
2022-10-19T23:01:49.374Z,3.88
2022-10-19T23:04:16.073Z,3.93
2022-10-19T23:06:42.750Z,3.88
2022-10-19T23:09:09.367Z,3.97
2022-10-19T23:11:36.111Z,3.95
2022-10-19T23:14:02.818Z,4.01
2022-10-19T23:16:30.257Z,3.96
2022-10-19T23:18:56.864Z,3.91
2022-10-19T23:21:25.126Z,3.90
2022-10-19T23:23:51.729Z,3.83
2022-10-19T23:26:19.344Z,3.71
2022-10-19T23:28:46.818Z,3.76
2022-10-19T23:31:17.119Z,3.82
2022-10-19T23:33:43.721Z,3.84
2022-10-19T23:36:20.249Z,3.72
2022-10-19T23:38:47.734Z,3.77
2022-10-19T23:41:14.624Z,3.74
2022-10-19T23:43:41.364Z,3.78
2022-10-19T23:46:08.006Z,3.79
2022-10-19T23:48:34.997Z,3.90
2022-10-19T23:51:03.324Z,3.88
2022-10-19T23:53:34.668Z,3.88
2022-10-19T23:56:08.209Z,3.88
2022-10-19T23:58:35.251Z,3.92
